sensor_id;sensor_type;location;lat;lon;timestamp;pressure;altitude;pressure_sealevel;temperature;humidity
8627;BME280;4351;51.422;6.794;2023-04-16T00:00:54;101895.06;;;9.14;100.00
8627;BME280;4351;51.422;6.794;2023-04-16T00:03:22;101887.44;;;9.01;100.00
8627;BME280;4351;51.422;6.794;2023-04-16T00:05:50;101894.78;;;8.96;100.00
8627;BME280;4351;51.422;6.794;2023-04-16T00:08:22;101893.84;;;9.23;100.00
8627;BME280;4351;51.422;6.794;2023-04-16T00:10:51;101898.28;;;9.24;100.00
8627;BME280;4351;51.422;6.794;2023-04-16T00:13:19;101888.56;;;9.19;100.00
8627;BME280;4351;51.422;6.794;2023-04-16T00:15:48;101884.84;;;9.48;100.00
8627;BME280;4351;51.422;6.794;2023-04-16T00:18:16;101881.38;;;9.20;100.00
8627;BME280;4351;51.422;6.794;2023-04-16T00:20:43;101870.59;;;9.20;100.00
8627;BME280;4351;51.422;6.794;2023-04-16T00:23:11;101874.44;;;9.13;100.00
8627;BME280;4351;51.422;6.794;2023-04-16T00:25:40;101870.38;;;9.26;100.00
8627;BME280;4351;51.422;6.794;2023-04-16T00:28:08;101866.75;;;9.27;100.00
8627;BME280;4351;51.422;6.794;2023-04-16T00:30:36;101869.19;;;9.10;100.00
8627;BME280;4351;51.422;6.794;2023-04-16T00:33:04;101864.88;;;9.29;100.00
8627;BME280;4351;51.422;6.794;2023-04-16T00:35:33;101858.94;;;9.19;100.00
8627;BME280;4351;51.422;6.794;2023-04-16T00:38:01;101863.81;;;9.10;100.00
8627;BME280;4351;51.422;6.794;2023-04-16T00:40:29;101859.97;;;9.17;100.00
8627;BME280;4351;51.422;6.794;2023-04-16T00:42:58;101868.25;;;9.35;100.00
8627;BME280;4351;51.422;6.794;2023-04-16T00:45:26;101863.66;;;9.13;100.00
8627;BME280;4351;51.422;6.794;2023-04-16T00:47:54;101867.81;;;8.97;100.00
8627;BME280;4351;51.422;6.794;2023-04-16T00:50:26;101866.00;;;8.98;100.00
8627;BME280;4351;51.422;6.794;2023-04-16T00:52:54;101868.69;;;9.48;100.00
8627;BME280;4351;51.422;6.794;2023-04-16T00:55:23;101871.03;;;9.33;100.00
8627;BME280;4351;51.422;6.794;2023-04-16T00:57:52;101865.34;;;9.17;100.00
8627;BME280;4351;51.422;6.794;2023-04-16T01:00:21;101869.47;;;9.51;100.00
8627;BME280;4351;51.422;6.794;2023-04-16T01:02:49;101863.47;;;9.19;100.00
8627;BME280;4351;51.422;6.794;2023-04-16T01:05:17;101858.03;;;9.45;100.00
8627;BME280;4351;51.422;6.794;2023-04-16T01:07:45;101858.75;;;9.26;100.00
8627;BME280;4351;51.422;6.794;2023-04-16T01:10:13;101872.16;;;9.27;100.00
8627;BME280;4351;51.422;6.794;2023-04-16T01:12:41;101864.63;;;9.12;100.00
8627;BME280;4351;51.422;6.794;2023-04-16T01:15:09;101871.03;;;9.33;100.00
8627;BME280;4351;51.422;6.794;2023-04-16T01:17:39;101871.56;;;9.43;100.00
8627;BME280;4351;51.422;6.794;2023-04-16T01:20:07;101869.44;;;9.27;100.00
8627;BME280;4351;51.422;6.794;2023-04-16T01:22:37;101867.75;;;9.25;100.00
8627;BME280;4351;51.422;6.794;2023-04-16T01:25:05;101868.66;;;9.49;100.00
8627;BME280;4351;51.422;6.794;2023-04-16T01:27:32;101861.88;;;9.37;100.00
8627;BME280;4351;51.422;6.794;2023-04-16T01:30:00;101874.94;;;9.48;100.00
8627;BME280;4351;51.422;6.794;2023-04-16T01:32:38;101870.28;;;9.29;100.00
8627;BME280;4351;51.422;6.794;2023-04-16T01:35:06;101867.66;;;9.28;100.00
8627;BME280;4351;51.422;6.794;2023-04-16T01:37:34;101866.75;;;9.27;100.00
8627;BME280;4351;51.422;6.794;2023-04-16T01:40:04;101866.34;;;9.14;100.00
8627;BME280;4351;51.422;6.794;2023-04-16T01:42:32;101862.78;;;9.38;100.00
8627;BME280;4351;51.422;6.794;2023-04-16T01:45:00;101875.41;;;9.12;100.00
8627;BME280;4351;51.422;6.794;2023-04-16T01:47:28;101881.66;;;9.12;100.00
8627;BME280;4351;51.422;6.794;2023-04-16T01:49:57;101871.50;;;9.20;100.00
8627;BME280;4351;51.422;6.794;2023-04-16T01:52:26;101873.22;;;9.22;100.00
8627;BME280;4351;51.422;6.794;2023-04-16T01:54:54;101877.63;;;9.24;100.00
8627;BME280;4351;51.422;6.794;2023-04-16T01:57:23;101879.44;;;9.24;100.00
8627;BME280;4351;51.422;6.794;2023-04-16T01:59:51;101870.34;;;9.52;100.00
8627;BME280;4351;51.422;6.794;2023-04-16T02:02:20;101877.53;;;9.27;100.00
8627;BME280;4351;51.422;6.794;2023-04-16T02:04:54;101859.16;;;9.15;100.00
8627;BME280;4351;51.422;6.794;2023-04-16T02:07:23;101861.88;;;9.13;100.00
8627;BME280;4351;51.422;6.794;2023-04-16T02:09:51;101859.38;;;9.32;100.00
8627;BME280;4351;51.422;6.794;2023-04-16T02:12:19;101864.81;;;9.31;100.00
8627;BME280;4351;51.422;6.794;2023-04-16T02:14:48;101862.69;;;9.15;100.00
8627;BME280;4351;51.422;6.794;2023-04-16T02:17:17;101854.03;;;9.07;100.00
8627;BME280;4351;51.422;6.794;2023-04-16T02:19:47;101863.16;;;9.03;100.00
8627;BME280;4351;51.422;6.794;2023-04-16T02:22:16;101860.63;;;8.98;100.00
8627;BME280;4351;51.422;6.794;2023-04-16T02:24:44;101863.16;;;9.03;100.00
8627;BME280;4351;51.422;6.794;2023-04-16T02:27:12;101860.94;;;9.14;100.00
8627;BME280;4351;51.422;6.794;2023-04-16T02:29:40;101859.31;;;9.10;100.00
8627;BME280;4351;51.422;6.794;2023-04-16T02:32:14;101859.31;;;9.10;100.00
8627;BME280;4351;51.422;6.794;2023-04-16T02:34:44;101864.28;;;8.95;100.00
8627;BME280;4351;51.422;6.794;2023-04-16T02:37:13;101852.56;;;9.22;100.00
8627;BME280;4351;51.422;6.794;2023-04-16T02:39:42;101853.56;;;9.19;100.00
8627;BME280;4351;51.422;6.794;2023-04-16T02:42:13;101852.16;;;9.09;100.00
8627;BME280;4351;51.422;6.794;2023-04-16T02:44:41;101846.28;;;9.23;100.00
8627;BME280;4351;51.422;6.794;2023-04-16T02:47:08;101845.53;;;9.18;100.00
8627;BME280;4351;51.422;6.794;2023-04-16T02:49:38;101838.69;;;9.09;100.00
8627;BME280;4351;51.422;6.794;2023-04-16T02:52:06;101835.56;;;8.96;100.00
8627;BME280;4351;51.422;6.794;2023-04-16T02:54:33;101833.25;;;9.11;100.00
8627;BME280;4351;51.422;6.794;2023-04-16T02:57:01;101824.25;;;9.12;100.00
8627;BME280;4351;51.422;6.794;2023-04-16T02:59:30;101824.16;;;9.15;100.00
8627;BME280;4351;51.422;6.794;2023-04-16T03:01:58;101813.13;;;9.21;100.00
8627;BME280;4351;51.422;6.794;2023-04-16T03:04:26;101808.41;;;9.02;100.00
8627;BME280;4351;51.422;6.794;2023-04-16T03:06:55;101805.63;;;9.05;100.00
8627;BME280;4351;51.422;6.794;2023-04-16T03:09:22;101807.91;;;8.92;100.00
8627;BME280;4351;51.422;6.794;2023-04-16T03:11:50;101806.31;;;9.11;100.00
8627;BME280;4351;51.422;6.794;2023-04-16T03:14:18;101800.19;;;9.07;100.00
8627;BME280;4351;51.422;6.794;2023-04-16T03:16:46;101793.56;;;9.16;100.00
8627;BME280;4351;51.422;6.794;2023-04-16T03:19:14;101793.47;;;9.19;100.00
8627;BME280;4351;51.422;6.794;2023-04-16T03:21:42;101790.66;;;9.22;100.00
8627;BME280;4351;51.422;6.794;2023-04-16T03:24:11;101785.81;;;9.08;100.00
8627;BME280;4351;51.422;6.794;2023-04-16T03:26:39;101791.94;;;9.12;100.00
8627;BME280;4351;51.422;6.794;2023-04-16T03:29:07;101785.97;;;9.03;100.00
8627;BME280;4351;51.422;6.794;2023-04-16T03:31:36;101789.09;;;8.91;100.00
8627;BME280;4351;51.422;6.794;2023-04-16T03:34:04;101781.88;;;8.93;100.00
8627;BME280;4351;51.422;6.794;2023-04-16T03:36:33;101788.94;;;8.95;100.00
8627;BME280;4351;51.422;6.794;2023-04-16T03:39:00;101781.75;;;8.96;100.00
8627;BME280;4351;51.422;6.794;2023-04-16T03:41:30;101768.34;;;9.42;100.00
8627;BME280;4351;51.422;6.794;2023-04-16T03:43:59;101776.84;;;9.07;100.00
8627;BME280;4351;51.422;6.794;2023-04-16T03:46:28;101762.03;;;9.19;100.00
8627;BME280;4351;51.422;6.794;2023-04-16T03:48:56;101766.59;;;9.17;100.00
8627;BME280;4351;51.422;6.794;2023-04-16T03:51:24;101765.13;;;9.08;100.00
8627;BME280;4351;51.422;6.794;2023-04-16T03:53:52;101770.22;;;9.16;100.00
8627;BME280;4351;51.422;6.794;2023-04-16T03:56:20;101756.34;;;9.27;100.00
8627;BME280;4351;51.422;6.794;2023-04-16T03:58:51;101758.34;;;9.22;100.00
8627;BME280;4351;51.422;6.794;2023-04-16T04:01:19;101758.09;;;9.04;100.00
8627;BME280;4351;51.422;6.794;2023-04-16T04:03:47;101753.75;;;9.24;100.00
8627;BME280;4351;51.422;6.794;2023-04-16T04:06:16;101755.78;;;9.19;100.00
8627;BME280;4351;51.422;6.794;2023-04-16T04:08:44;101765.75;;;9.15;100.00
8627;BME280;4351;51.422;6.794;2023-04-16T04:11:13;101766.56;;;9.19;100.00
8627;BME280;4351;51.422;6.794;2023-04-16T04:13:42;101762.13;;;9.40;100.00
8627;BME280;4351;51.422;6.794;2023-04-16T04:16:11;101770.28;;;9.15;100.00
8627;BME280;4351;51.422;6.794;2023-04-16T04:18:42;101766.19;;;9.04;100.00
8627;BME280;4351;51.422;6.794;2023-04-16T04:21:10;101763.25;;;9.11;100.00
8627;BME280;4351;51.422;6.794;2023-04-16T04:23:38;101758.00;;;9.31;100.00
8627;BME280;4351;51.422;6.794;2023-04-16T04:26:07;101758.75;;;9.11;100.00
8627;BME280;4351;51.422;6.794;2023-04-16T04:28:35;101759.31;;;9.19;100.00
8627;BME280;4351;51.422;6.794;2023-04-16T04:31:03;101764.38;;;9.05;100.00
8627;BME280;4351;51.422;6.794;2023-04-16T04:33:33;101763.47;;;9.04;100.00
8627;BME280;4351;51.422;6.794;2023-04-16T04:36:01;101764.19;;;9.10;100.00
8627;BME280;4351;51.422;6.794;2023-04-16T04:38:29;101780.19;;;9.14;100.00
8627;BME280;4351;51.422;6.794;2023-04-16T04:40:57;101778.78;;;9.04;100.00
8627;BME280;4351;51.422;6.794;2023-04-16T04:43:28;101794.53;;;9.15;100.00
8627;BME280;4351;51.422;6.794;2023-04-16T04:45:56;101793.78;;;9.58;100.00
8627;BME280;4351;51.422;6.794;2023-04-16T04:48:26;101789.00;;;9.42;100.00
8627;BME280;4351;51.422;6.794;2023-04-16T04:50:55;101792.84;;;9.11;100.00
8627;BME280;4351;51.422;6.794;2023-04-16T04:53:23;101800.84;;;9.14;100.00
8627;BME280;4351;51.422;6.794;2023-04-16T04:55:52;101803.53;;;9.14;100.00
8627;BME280;4351;51.422;6.794;2023-04-16T04:58:31;101813.47;;;9.12;100.00
8627;BME280;4351;51.422;6.794;2023-04-16T05:00:59;101809.16;;;9.07;100.00
8627;BME280;4351;51.422;6.794;2023-04-16T05:03:27;101813.56;;;9.08;100.00
8627;BME280;4351;51.422;6.794;2023-04-16T05:05:56;101814.47;;;9.33;100.00
8627;BME280;4351;51.422;6.794;2023-04-16T05:08:24;101816.81;;;9.42;100.00
8627;BME280;4351;51.422;6.794;2023-04-16T05:10:52;101809.56;;;9.20;100.00
8627;BME280;4351;51.422;6.794;2023-04-16T05:13:20;101813.06;;;9.23;100.00
8627;BME280;4351;51.422;6.794;2023-04-16T05:15:48;101820.41;;;9.19;100.00
8627;BME280;4351;51.422;6.794;2023-04-16T05:18:15;101830.47;;;9.38;100.00
8627;BME280;4351;51.422;6.794;2023-04-16T05:20:43;101820.16;;;9.25;100.00
8627;BME280;4351;51.422;6.794;2023-04-16T05:23:12;101818.28;;;9.27;100.00
8627;BME280;4351;51.422;6.794;2023-04-16T05:25:41;101833.25;;;9.35;100.00
8627;BME280;4351;51.422;6.794;2023-04-16T05:28:08;101830.63;;;9.33;100.00
8627;BME280;4351;51.422;6.794;2023-04-16T05:30:36;101834.69;;;9.21;100.00
8627;BME280;4351;51.422;6.794;2023-04-16T05:33:04;101835.94;;;9.35;100.00
8627;BME280;4351;51.422;6.794;2023-04-16T05:35:32;101846.13;;;9.26;100.00
8627;BME280;4351;51.422;6.794;2023-04-16T05:38:00;101843.69;;;9.20;100.00
8627;BME280;4351;51.422;6.794;2023-04-16T05:40:31;101855.66;;;9.11;100.00
8627;BME280;4351;51.422;6.794;2023-04-16T05:42:59;101868.59;;;9.01;100.00
8627;BME280;4351;51.422;6.794;2023-04-16T05:45:27;101876.00;;;9.20;100.00
8627;BME280;4351;51.422;6.794;2023-04-16T05:47:55;101879.72;;;9.16;100.00
8627;BME280;4351;51.422;6.794;2023-04-16T05:50:23;101889.84;;;9.09;100.00
8627;BME280;4351;51.422;6.794;2023-04-16T05:52:50;101903.03;;;9.17;100.00
8627;BME280;4351;51.422;6.794;2023-04-16T05:55:18;101910.16;;;9.18;100.00
8627;BME280;4351;51.422;6.794;2023-04-16T05:57:47;101903.25;;;9.11;100.00
8627;BME280;4351;51.422;6.794;2023-04-16T06:00:15;101903.25;;;9.11;100.00
8627;BME280;4351;51.422;6.794;2023-04-16T06:02:43;101912.47;;;9.03;100.00
8627;BME280;4351;51.422;6.794;2023-04-16T06:05:11;101923.81;;;9.39;100.00
8627;BME280;4351;51.422;6.794;2023-04-16T06:07:39;101928.50;;;9.58;100.00
8627;BME280;4351;51.422;6.794;2023-04-16T06:10:07;101929.91;;;9.68;100.00
8627;BME280;4351;51.422;6.794;2023-04-16T06:12:35;101920.75;;;9.48;100.00
8627;BME280;4351;51.422;6.794;2023-04-16T06:15:06;101931.06;;;9.37;100.00
8627;BME280;4351;51.422;6.794;2023-04-16T06:17:34;101929.53;;;9.04;100.00
8627;BME280;4351;51.422;6.794;2023-04-16T06:20:03;101927.97;;;9.22;100.00
8627;BME280;4351;51.422;6.794;2023-04-16T06:22:31;101931.31;;;9.29;100.00
8627;BME280;4351;51.422;6.794;2023-04-16T06:24:59;101934.19;;;9.24;100.00
8627;BME280;4351;51.422;6.794;2023-04-16T06:27:27;101940.06;;;9.10;100.00
8627;BME280;4351;51.422;6.794;2023-04-16T06:29:55;101943.38;;;9.18;100.00
8627;BME280;4351;51.422;6.794;2023-04-16T06:32:24;101943.56;;;9.38;100.00
8627;BME280;4351;51.422;6.794;2023-04-16T06:34:52;101933.34;;;9.22;100.00
8627;BME280;4351;51.422;6.794;2023-04-16T06:37:21;101938.03;;;9.17;100.00
8627;BME280;4351;51.422;6.794;2023-04-16T06:39:49;101942.25;;;9.24;100.00
8627;BME280;4351;51.422;6.794;2023-04-16T06:42:19;101940.63;;;9.20;100.00
8627;BME280;4351;51.422;6.794;2023-04-16T06:44:47;101938.03;;;9.17;100.00
8627;BME280;4351;51.422;6.794;2023-04-16T06:47:15;101940.88;;;9.38;100.00
8627;BME280;4351;51.422;6.794;2023-04-16T06:49:44;101941.84;;;9.37;100.00
8627;BME280;4351;51.422;6.794;2023-04-16T06:52:12;101944.91;;;9.51;100.00
8627;BME280;4351;51.422;6.794;2023-04-16T06:54:40;101934.22;;;9.48;100.00
8627;BME280;4351;51.422;6.794;2023-04-16T06:57:08;101934.44;;;9.42;100.00
8627;BME280;4351;51.422;6.794;2023-04-16T06:59:36;101925.69;;;9.37;100.00
8627;BME280;4351;51.422;6.794;2023-04-16T07:02:05;101917.00;;;9.52;100.00
8627;BME280;4351;51.422;6.794;2023-04-16T07:04:34;101912.66;;;9.48;100.00
8627;BME280;4351;51.422;6.794;2023-04-16T07:07:03;101913.47;;;9.50;100.00
8627;BME280;4351;51.422;6.794;2023-04-16T07:09:31;101910.13;;;9.69;100.00
8627;BME280;4351;51.422;6.794;2023-04-16T07:11:59;101891.28;;;9.68;100.00
8627;BME280;4351;51.422;6.794;2023-04-16T07:14:28;101896.41;;;9.51;100.00
8627;BME280;4351;51.422;6.794;2023-04-16T07:16:55;101905.31;;;9.53;100.00
8627;BME280;4351;51.422;6.794;2023-04-16T07:19:23;101886.91;;;9.89;100.00
8627;BME280;4351;51.422;6.794;2023-04-16T07:21:55;101880.91;;;9.81;100.00
8627;BME280;4351;51.422;6.794;2023-04-16T07:24:25;101877.34;;;9.80;100.00
8627;BME280;4351;51.422;6.794;2023-04-16T07:26:52;101878.03;;;9.85;100.00
8627;BME280;4351;51.422;6.794;2023-04-16T07:29:21;101875.41;;;9.84;100.00
8627;BME280;4351;51.422;6.794;2023-04-16T07:31:48;101865.91;;;9.97;100.00
8627;BME280;4351;51.422;6.794;2023-04-16T07:34:16;101870.94;;;10.07;100.00
8627;BME280;4351;51.422;6.794;2023-04-16T07:36:44;101871.59;;;10.12;100.00
8627;BME280;4351;51.422;6.794;2023-04-16T07:39:12;101879.94;;;10.06;100.00
8627;BME280;4351;51.422;6.794;2023-04-16T07:41:42;101871.16;;;10.00;100.00
8627;BME280;4351;51.422;6.794;2023-04-16T07:44:10;101877.34;;;10.27;100.00
8627;BME280;4351;51.422;6.794;2023-04-16T07:46:38;101879.50;;;10.17;100.00
8627;BME280;4351;51.422;6.794;2023-04-16T07:49:13;101869.91;;;10.32;100.00
8627;BME280;4351;51.422;6.794;2023-04-16T07:51:41;101882.47;;;10.33;100.00
8627;BME280;4351;51.422;6.794;2023-04-16T07:54:09;101888.69;;;10.35;100.00
8627;BME280;4351;51.422;6.794;2023-04-16T07:56:37;101894.13;;;10.56;100.00
8627;BME280;4351;51.422;6.794;2023-04-16T07:59:06;101885.53;;;10.23;100.00
8627;BME280;4351;51.422;6.794;2023-04-16T08:01:48;101891.78;;;10.46;100.00
8627;BME280;4351;51.422;6.794;2023-04-16T08:04:16;101891.75;;;10.26;100.00
8627;BME280;4351;51.422;6.794;2023-04-16T08:06:50;101884.84;;;10.18;100.00
8627;BME280;4351;51.422;6.794;2023-04-16T08:09:18;101897.03;;;10.29;100.00
8627;BME280;4351;51.422;6.794;2023-04-16T08:11:46;101900.31;;;10.35;100.00
8627;BME280;4351;51.422;6.794;2023-04-16T08:14:17;101893.47;;;10.51;100.00
8627;BME280;4351;51.422;6.794;2023-04-16T08:16:45;101910.25;;;10.35;100.00
8627;BME280;4351;51.422;6.794;2023-04-16T08:19:13;101896.63;;;10.38;100.00
8627;BME280;4351;51.422;6.794;2023-04-16T08:21:41;101900.75;;;10.24;100.00
8627;BME280;4351;51.422;6.794;2023-04-16T08:24:09;101903.41;;;10.49;100.00
8627;BME280;4351;51.422;6.794;2023-04-16T08:26:37;101895.75;;;10.60;100.00
8627;BME280;4351;51.422;6.794;2023-04-16T08:29:05;101901.97;;;10.62;100.00
8627;BME280;4351;51.422;6.794;2023-04-16T08:31:35;101909.59;;;10.52;100.00
8627;BME280;4351;51.422;6.794;2023-04-16T08:34:03;101900.06;;;10.64;100.00
8627;BME280;4351;51.422;6.794;2023-04-16T08:36:31;101895.28;;;10.71;100.00
8627;BME280;4351;51.422;6.794;2023-04-16T08:38:58;101902.47;;;10.72;100.00
8627;BME280;4351;51.422;6.794;2023-04-16T08:41:28;101886.44;;;11.30;100.00
8627;BME280;4351;51.422;6.794;2023-04-16T08:43:59;101911.31;;;11.18;100.00
8627;BME280;4351;51.422;6.794;2023-04-16T08:46:30;101907.25;;;11.28;100.00
8627;BME280;4351;51.422;6.794;2023-04-16T08:48:59;101905.63;;;11.45;100.00
8627;BME280;4351;51.422;6.794;2023-04-16T08:51:33;101915.81;;;11.38;100.00
8627;BME280;4351;51.422;6.794;2023-04-16T08:54:03;101927.59;;;11.16;100.00
8627;BME280;4351;51.422;6.794;2023-04-16T08:56:35;101928.72;;;11.31;100.00
8627;BME280;4351;51.422;6.794;2023-04-16T08:59:03;101942.31;;;11.30;100.00
8627;BME280;4351;51.422;6.794;2023-04-16T09:01:32;101936.81;;;11.10;100.00
8627;BME280;4351;51.422;6.794;2023-04-16T09:04:01;101941.50;;;11.27;100.00
8627;BME280;4351;51.422;6.794;2023-04-16T09:06:30;101945.81;;;11.32;100.00
8627;BME280;4351;51.422;6.794;2023-04-16T09:09:00;101945.06;;;11.28;100.00
8627;BME280;4351;51.422;6.794;2023-04-16T09:11:30;101951.47;;;11.25;100.00
8627;BME280;4351;51.422;6.794;2023-04-16T09:13:59;101946.91;;;11.68;100.00
8627;BME280;4351;51.422;6.794;2023-04-16T09:16:28;101959.53;;;11.67;100.00
8627;BME280;4351;51.422;6.794;2023-04-16T09:19:01;101955.31;;;11.61;100.00
8627;BME280;4351;51.422;6.794;2023-04-16T09:21:29;101956.88;;;11.87;100.00
8627;BME280;4351;51.422;6.794;2023-04-16T09:23:58;101969.59;;;11.84;100.00
8627;BME280;4351;51.422;6.794;2023-04-16T09:26:26;101972.81;;;11.73;100.00
8627;BME280;4351;51.422;6.794;2023-04-16T09:28:54;101972.66;;;11.96;100.00
8627;BME280;4351;51.422;6.794;2023-04-16T09:31:22;101983.88;;;11.67;100.00
8627;BME280;4351;51.422;6.794;2023-04-16T09:34:02;101990.16;;;11.68;100.00
8627;BME280;4351;51.422;6.794;2023-04-16T09:36:32;101983.97;;;11.85;100.00
8627;BME280;4351;51.422;6.794;2023-04-16T09:39:00;101999.09;;;11.89;100.00
8627;BME280;4351;51.422;6.794;2023-04-16T09:41:30;101997.56;;;11.83;100.00
8627;BME280;4351;51.422;6.794;2023-04-16T09:44:02;102002.59;;;11.72;100.00
8627;BME280;4351;51.422;6.794;2023-04-16T09:46:33;101995.47;;;11.90;100.00
8627;BME280;4351;51.422;6.794;2023-04-16T09:49:07;102008.78;;;11.95;100.00
8627;BME280;4351;51.422;6.794;2023-04-16T09:51:37;102005.56;;;12.06;100.00
8627;BME280;4351;51.422;6.794;2023-04-16T09:54:05;102004.63;;;11.67;100.00
8627;BME280;4351;51.422;6.794;2023-04-16T09:56:39;102003.13;;;12.21;100.00
8627;BME280;4351;51.422;6.794;2023-04-16T09:59:15;102025.38;;;12.06;100.00
8627;BME280;4351;51.422;6.794;2023-04-16T10:01:44;102017.53;;;12.21;100.00
8627;BME280;4351;51.422;6.794;2023-04-16T10:04:19;102029.00;;;12.26;100.00
8627;BME280;4351;51.422;6.794;2023-04-16T10:07:01;102028.63;;;12.34;100.00
8627;BME280;4351;51.422;6.794;2023-04-16T10:09:31;102037.00;;;12.09;100.00
8627;BME280;4351;51.422;6.794;2023-04-16T10:11:59;102040.41;;;12.14;100.00
8627;BME280;4351;51.422;6.794;2023-04-16T10:14:31;102050.91;;;12.20;100.00
8627;BME280;4351;51.422;6.794;2023-04-16T10:17:01;102038.66;;;12.51;100.00
8627;BME280;4351;51.422;6.794;2023-04-16T10:19:32;102041.91;;;12.78;100.00
8627;BME280;4351;51.422;6.794;2023-04-16T10:22:01;102041.28;;;12.90;100.00
8627;BME280;4351;51.422;6.794;2023-04-16T10:24:31;102046.25;;;12.99;100.00
8627;BME280;4351;51.422;6.794;2023-04-16T10:27:00;102045.00;;;13.07;100.00
8627;BME280;4351;51.422;6.794;2023-04-16T10:29:29;102048.34;;;12.75;100.00
8627;BME280;4351;51.422;6.794;2023-04-16T10:32:00;102064.41;;;12.97;100.00
8627;BME280;4351;51.422;6.794;2023-04-16T10:34:29;102066.72;;;12.87;100.00
8627;BME280;4351;51.422;6.794;2023-04-16T10:37:02;102062.47;;;12.82;100.00
8627;BME280;4351;51.422;6.794;2023-04-16T10:39:34;102071.88;;;12.74;100.00
8627;BME280;4351;51.422;6.794;2023-04-16T10:42:08;102072.66;;;12.76;100.00
8627;BME280;4351;51.422;6.794;2023-04-16T10:44:38;102083.25;;;13.01;100.00
8627;BME280;4351;51.422;6.794;2023-04-16T10:47:11;102083.75;;;12.70;100.00
8627;BME280;4351;51.422;6.794;2023-04-16T10:49:42;102076.31;;;13.13;100.00
8627;BME280;4351;51.422;6.794;2023-04-16T10:52:14;102081.91;;;13.45;100.00
8627;BME280;4351;51.422;6.794;2023-04-16T10:54:43;102080.41;;;13.21;100.00
8627;BME280;4351;51.422;6.794;2023-04-16T10:57:16;102076.78;;;13.21;100.00
8627;BME280;4351;51.422;6.794;2023-04-16T11:09:53;102097.84;;;13.16;100.00
8627;BME280;4351;51.422;6.794;2023-04-16T11:12:24;102105.25;;;13.30;100.00
8627;BME280;4351;51.422;6.794;2023-04-16T11:14:57;102102.25;;;13.18;100.00
8627;BME280;4351;51.422;6.794;2023-04-16T11:17:28;102117.63;;;13.18;100.00
8627;BME280;4351;51.422;6.794;2023-04-16T11:19:56;102122.19;;;13.35;100.00
8627;BME280;4351;51.422;6.794;2023-04-16T11:22:24;102124.66;;;13.03;100.00
8627;BME280;4351;51.422;6.794;2023-04-16T11:24:55;102120.38;;;12.98;100.00
8627;BME280;4351;51.422;6.794;2023-04-16T11:27:24;102118.50;;;12.99;100.00
8627;BME280;4351;51.422;6.794;2023-04-16T11:29:59;102129.00;;;13.07;100.00
8627;BME280;4351;51.422;6.794;2023-04-16T11:32:30;102124.66;;;13.03;100.00
8627;BME280;4351;51.422;6.794;2023-04-16T11:34:59;102130.06;;;13.22;100.00
8627;BME280;4351;51.422;6.794;2023-04-16T11:37:33;102124.66;;;13.40;100.00
8627;BME280;4351;51.422;6.794;2023-04-16T11:40:04;102130.34;;;13.53;100.00
8627;BME280;4351;51.422;6.794;2023-04-16T11:42:33;102124.63;;;13.77;100.00
8627;BME280;4351;51.422;6.794;2023-04-16T11:45:03;102132.25;;;14.04;100.00
8627;BME280;4351;51.422;6.794;2023-04-16T11:47:32;102127.53;;;14.25;100.00
8627;BME280;4351;51.422;6.794;2023-04-16T11:50:19;102147.66;;;14.04;100.00
8627;BME280;4351;51.422;6.794;2023-04-16T11:52:48;102137.38;;;14.10;100.00
8627;BME280;4351;51.422;6.794;2023-04-16T11:55:18;102142.78;;;14.10;100.00
8627;BME280;4351;51.422;6.794;2023-04-16T11:57:47;102140.56;;;14.35;100.00
8627;BME280;4351;51.422;6.794;2023-04-16T12:00:17;102149.00;;;14.30;100.00
8627;BME280;4351;51.422;6.794;2023-04-16T12:02:51;102134.22;;;14.18;100.00
8627;BME280;4351;51.422;6.794;2023-04-16T12:05:28;102140.06;;;14.28;100.00
8627;BME280;4351;51.422;6.794;2023-04-16T12:07:57;102147.38;;;14.26;100.00
8627;BME280;4351;51.422;6.794;2023-04-16T12:10:28;102146.97;;;14.34;100.00
8627;BME280;4351;51.422;6.794;2023-04-16T12:13:09;102144.97;;;14.37;100.00
8627;BME280;4351;51.422;6.794;2023-04-16T12:15:45;102164.66;;;14.07;100.00
8627;BME280;4351;51.422;6.794;2023-04-16T12:18:13;102162.88;;;14.24;100.00
8627;BME280;4351;51.422;6.794;2023-04-16T12:20:42;102157.75;;;14.35;100.00
8627;BME280;4351;51.422;6.794;2023-04-16T12:23:21;102158.75;;;13.99;100.00
8627;BME280;4351;51.422;6.794;2023-04-16T12:25:52;102172.69;;;14.09;100.00
8627;BME280;4351;51.422;6.794;2023-04-16T12:28:28;102162.59;;;14.12;100.00
8627;BME280;4351;51.422;6.794;2023-04-16T12:30:56;102164.00;;;14.02;100.00
8627;BME280;4351;51.422;6.794;2023-04-16T12:33:24;102161.78;;;14.10;100.00
8627;BME280;4351;51.422;6.794;2023-04-16T12:35:52;102168.56;;;14.19;100.00
8627;BME280;4351;51.422;6.794;2023-04-16T12:38:20;102166.13;;;14.31;100.00
8627;BME280;4351;51.422;6.794;2023-04-16T12:40:52;102165.91;;;14.18;100.00
8627;BME280;4351;51.422;6.794;2023-04-16T12:43:22;102167.34;;;14.25;100.00
8627;BME280;4351;51.422;6.794;2023-04-16T12:45:50;102170.72;;;14.12;100.00
8627;BME280;4351;51.422;6.794;2023-04-16T12:48:18;102172.81;;;13.89;100.00
8627;BME280;4351;51.422;6.794;2023-04-16T12:50:46;102174.94;;;14.00;100.00
8627;BME280;4351;51.422;6.794;2023-04-16T12:53:13;102172.69;;;14.09;100.00
8627;BME280;4351;51.422;6.794;2023-04-16T12:55:41;102177.50;;;14.21;100.00
8627;BME280;4351;51.422;6.794;2023-04-16T12:58:12;102177.75;;;13.99;100.00
8627;BME280;4351;51.422;6.794;2023-04-16T13:00:39;102177.91;;;13.96;100.00
8627;BME280;4351;51.422;6.794;2023-04-16T13:03:07;102184.13;;;14.16;100.00
8627;BME280;4351;51.422;6.794;2023-04-16T13:05:35;102186.28;;;13.73;100.00
8627;BME280;4351;51.422;6.794;2023-04-16T13:08:04;102183.66;;;13.89;100.00
8627;BME280;4351;51.422;6.794;2023-04-16T13:10:31;102186.53;;;13.68;100.00
8627;BME280;4351;51.422;6.794;2023-04-16T13:12:59;102180.84;;;13.91;100.00
8627;BME280;4351;51.422;6.794;2023-04-16T13:15:28;102183.72;;;13.70;100.00
8627;BME280;4351;51.422;6.794;2023-04-16T13:17:56;102187.00;;;13.77;100.00
8627;BME280;4351;51.422;6.794;2023-04-16T13:20:24;102194.72;;;13.67;100.00
8627;BME280;4351;51.422;6.794;2023-04-16T13:22:52;102192.50;;;13.75;100.00
8627;BME280;4351;51.422;6.794;2023-04-16T13:25:20;102191.88;;;14.06;100.00
8627;BME280;4351;51.422;6.794;2023-04-16T13:27:48;102183.19;;;13.81;100.00